Anmoore, West Virginia
Current Conditions -  °F | °C
As of 12:53 AM on Sunday 23 Nov 2014 (Local Time) from KCKB Reporting Station
Broken Clouds Broken Clouds  
Wind Chill: 50°   Ceiling: 10000
Heat Index: 50°   Visibility: 10mi
Dew Point: 22°   Wind: 0mph
Humidity: 33%   Direction: NA
Pressure: 30.13"   Gusts: NA
Location:  39.26°N, 80.29°W
Report Text: KCKB 230553Z AUTO 00000KT 10SM BKN100 10/M06 A3013 RMK AO2 SLP200 T01001056 10100 20067 56007
Loading
Personal Weather Stations






























Interactive Weather Map New forecast layout! Learn more

10-Day Weather Forecast

Advertisements
Track Severe Weather on mobile